createdAt,value
2018-04-19T00:01:21.924Z,8.37
2018-04-19T00:03:51.704Z,9.50
2018-04-19T00:06:19.943Z,8.20
2018-04-19T00:08:49.703Z,8.60
2018-04-19T00:11:18.737Z,8.77
2018-04-19T00:13:46.966Z,8.57
2018-04-19T00:16:15.203Z,8.40
2018-04-19T00:18:44.218Z,7.47
2018-04-19T00:21:13.222Z,7.40
2018-04-19T00:23:41.479Z,7.83
2018-04-19T00:26:09.719Z,9.23
2018-04-19T00:28:39.498Z,8.13
2018-04-19T00:31:09.094Z,7.93
2018-04-19T00:33:37.196Z,7.27
2018-04-19T00:36:06.826Z,8.00
2018-04-19T00:38:35.318Z,7.63
2018-04-19T00:41:04.904Z,8.40
2018-04-19T00:43:33.455Z,6.70
2018-04-19T00:46:03.039Z,6.33
2018-04-19T00:48:32.642Z,8.07
2018-04-19T00:51:00.911Z,6.00
2018-04-19T00:53:29.908Z,6.90
2018-04-19T00:55:58.140Z,6.30
2018-04-19T00:58:27.542Z,6.70
2018-04-19T01:00:56.535Z,6.00
2018-04-19T01:03:26.269Z,5.70
2018-04-19T01:05:55.367Z,5.40
2018-04-19T01:08:23.591Z,5.70
2018-04-19T01:10:52.588Z,5.23
2018-04-19T01:13:20.858Z,5.80
2018-04-19T01:15:49.082Z,4.80
2018-04-19T01:18:17.347Z,4.60
2018-04-19T01:20:45.578Z,4.47
2018-04-19T01:23:15.146Z,4.90
2018-04-19T01:25:43.283Z,5.30
2018-04-19T01:28:11.515Z,5.47
2018-04-19T01:30:39.738Z,4.70
2018-04-19T01:33:09.510Z,4.60
2018-04-19T01:35:49.442Z,5.10
2018-04-19T01:38:18.183Z,4.60
2018-04-19T01:40:46.408Z,4.60
2018-04-19T01:43:14.647Z,4.50
2018-04-19T01:45:42.951Z,4.93
2018-04-19T01:48:11.184Z,5.83
2018-04-19T01:50:39.410Z,4.07
2018-04-19T01:53:07.695Z,5.50
2018-04-19T01:55:36.682Z,4.67
2018-04-19T01:58:06.050Z,4.97
2018-04-19T02:00:35.081Z,4.90
2018-04-19T02:03:03.307Z,5.50
2018-04-19T02:05:31.587Z,3.90
2018-04-19T02:08:00.584Z,5.40
2018-04-19T02:10:29.207Z,4.83
2018-04-19T02:12:57.439Z,5.80
2018-04-19T02:15:27.055Z,4.30
2018-04-19T02:17:55.559Z,4.70
2018-04-19T02:20:23.796Z,5.27
2018-04-19T02:22:52.063Z,6.33
2018-04-19T02:25:20.292Z,5.00
2018-04-19T02:27:48.515Z,5.60
2018-04-19T02:30:18.285Z,5.03
2018-04-19T02:32:46.511Z,5.10
2018-04-19T02:35:14.737Z,5.47
2018-04-19T02:37:43.022Z,4.77
2018-04-19T02:40:11.247Z,4.30
2018-04-19T02:42:40.980Z,4.70
2018-04-19T02:45:10.595Z,5.00
2018-04-19T02:47:39.092Z,3.90
2018-04-19T02:50:07.324Z,4.30
2018-04-19T02:52:36.930Z,4.80
2018-04-19T02:55:05.437Z,5.00
2018-04-19T02:57:33.660Z,4.60
2018-04-19T03:00:01.936Z,5.17
2018-04-19T03:02:30.163Z,4.40
2018-04-19T03:04:59.896Z,4.60
2018-04-19T03:07:28.164Z,4.93
2018-04-19T03:09:56.400Z,4.97
2018-04-19T03:12:24.621Z,6.20
2018-04-19T03:14:52.912Z,4.83
2018-04-19T03:17:21.135Z,5.93
2018-04-19T03:19:49.358Z,5.37
2018-04-19T03:22:17.627Z,5.07
2018-04-19T03:24:46.623Z,5.53
2018-04-19T03:27:14.854Z,5.60
2018-04-19T03:29:43.116Z,6.00
2018-04-19T03:32:11.346Z,4.93
2018-04-19T03:34:40.914Z,5.80
2018-04-19T03:37:10.205Z,5.40
2018-04-19T03:39:39.791Z,5.80
2018-04-19T03:42:08.166Z,5.63
2018-04-19T03:44:37.941Z,5.23
2018-04-19T03:47:06.178Z,5.90
2018-04-19T03:49:34.799Z,5.83
2018-04-19T03:52:03.287Z,5.83
2018-04-19T03:54:31.909Z,6.07
2018-04-19T03:57:00.133Z,5.33
2018-04-19T03:59:29.247Z,5.83
2018-04-19T04:01:57.475Z,5.30
2018-04-19T04:04:26.842Z,6.10
2018-04-19T04:06:56.620Z,5.83
2018-04-19T04:09:24.858Z,5.90
2018-04-19T04:11:53.079Z,6.70
2018-04-19T04:14:22.703Z,5.73
2018-04-19T04:17:02.576Z,6.57
2018-04-19T04:22:41.982Z,6.60
2018-04-19T04:25:10.312Z,5.70
2018-04-19T04:27:39.312Z,6.73
2018-04-19T04:30:07.535Z,6.90
2018-04-19T04:32:36.246Z,7.00
2018-04-19T04:35:05.985Z,6.90
2018-04-19T04:37:34.979Z,5.40
2018-04-19T04:40:04.010Z,5.73
2018-04-19T04:42:33.007Z,6.70
2018-04-19T04:45:01.244Z,6.53
2018-04-19T04:47:30.874Z,5.83
2018-04-19T04:49:58.975Z,6.07
2018-04-19T04:52:27.212Z,7.00
2018-04-19T04:54:55.494Z,6.13
2018-04-19T04:57:23.728Z,7.03
2018-04-19T04:59:53.095Z,6.43
2018-04-19T05:02:22.140Z,7.10
2018-04-19T05:04:50.367Z,7.10
2018-04-19T05:07:19.363Z,7.67
2018-04-19T05:09:47.640Z,6.60
2018-04-19T05:12:15.872Z,8.00
2018-04-19T05:14:44.103Z,6.77
2018-04-19T05:17:12.383Z,6.77
2018-04-19T05:19:40.606Z,5.97
2018-04-19T05:22:09.968Z,6.07
2018-04-19T05:24:38.995Z,7.00
2018-04-19T05:27:08.571Z,7.10
2018-04-19T05:29:36.730Z,6.50
2018-04-19T05:32:04.990Z,6.30
2018-04-19T05:34:33.219Z,6.50
2018-04-19T05:37:02.868Z,6.60
2018-04-19T05:39:31.351Z,6.63
2018-04-19T05:41:59.975Z,7.63
2018-04-19T05:44:29.000Z,8.17
2018-04-19T05:46:57.230Z,7.07
2018-04-19T05:49:25.503Z,7.80
2018-04-19T05:51:53.735Z,6.60
2018-04-19T05:54:21.975Z,7.27
2018-04-19T05:56:50.221Z,6.43
2018-04-19T05:59:18.446Z,8.23
2018-04-19T06:01:46.712Z,8.57
2018-04-19T06:04:14.978Z,7.60
2018-04-19T06:06:43.980Z,8.33
2018-04-19T06:09:12.239Z,8.10
2018-04-19T06:11:41.266Z,6.80
2018-04-19T06:14:10.255Z,7.67
2018-04-19T06:16:38.514Z,7.80
2018-04-19T06:19:06.784Z,9.20
2018-04-19T06:21:35.782Z,7.93
2018-04-19T06:24:04.848Z,6.77
2018-04-19T06:26:33.078Z,7.70
2018-04-19T06:29:02.662Z,7.50
2018-04-19T06:31:31.211Z,8.53
2018-04-19T06:33:59.431Z,7.03
2018-04-19T06:36:28.431Z,8.00
2018-04-19T06:38:58.218Z,6.60
2018-04-19T06:41:26.460Z,7.03
2018-04-19T06:43:54.694Z,6.90
2018-04-19T06:46:23.728Z,7.20
2018-04-19T06:48:51.956Z,6.27
2018-04-19T06:51:20.210Z,7.23
2018-04-19T06:53:48.881Z,6.60
2018-04-19T06:56:17.107Z,8.17
2018-04-19T06:58:46.851Z,6.37
2018-04-19T07:01:16.247Z,6.80
2018-04-19T07:03:45.611Z,6.27
2018-04-19T07:06:14.606Z,6.70
2018-04-19T07:08:42.880Z,5.87
2018-04-19T07:11:11.108Z,6.13
2018-04-19T07:13:39.360Z,5.47
2018-04-19T07:16:07.624Z,5.80
2018-04-19T07:18:37.035Z,6.43
2018-04-19T07:21:06.057Z,6.07
2018-04-19T07:23:34.284Z,5.70
2018-04-19T07:26:03.695Z,6.17
2018-04-19T07:28:31.927Z,6.10
2018-04-19T07:31:00.166Z,6.90
2018-04-19T07:33:28.439Z,6.57
2018-04-19T07:35:56.676Z,5.27
2018-04-19T07:38:24.900Z,5.80
2018-04-19T07:40:53.179Z,5.20
2018-04-19T07:43:22.548Z,6.40
2018-04-19T07:45:52.119Z,5.30
2018-04-19T07:48:20.657Z,5.37
2018-04-19T07:50:48.879Z,5.47
2018-04-19T07:53:18.672Z,4.80
2018-04-19T07:55:47.238Z,4.80
2018-04-19T07:58:15.466Z,5.20
2018-04-19T08:00:43.729Z,5.50
2018-04-19T08:03:13.103Z,5.30
2018-04-19T08:05:41.393Z,5.03
2018-04-19T08:08:09.608Z,5.30
2018-04-19T08:10:37.847Z,5.97
2018-04-19T08:13:06.108Z,4.70
2018-04-19T08:15:34.339Z,5.03
2018-04-19T08:18:03.918Z,4.87
2018-04-19T08:20:32.850Z,4.97
2018-04-19T08:23:01.079Z,4.83
2018-04-19T08:25:30.908Z,4.80
2018-04-19T08:27:59.138Z,4.70
2018-04-19T08:30:27.362Z,4.87
2018-04-19T08:32:55.643Z,4.47
2018-04-19T08:35:24.672Z,4.67
2018-04-19T08:37:52.863Z,4.70
2018-04-19T08:40:21.899Z,4.40
2018-04-19T08:42:50.891Z,4.87
2018-04-19T08:45:19.121Z,5.03
2018-04-19T08:47:47.392Z,5.97
2018-04-19T08:50:15.657Z,4.60
2018-04-19T08:52:43.851Z,4.43
2018-04-19T08:55:12.159Z,5.07
2018-04-19T08:57:40.420Z,4.43
2018-04-19T09:00:09.995Z,4.20
2018-04-19T09:02:38.134Z,4.30
2018-04-19T09:05:07.128Z,3.93
2018-04-19T09:07:36.783Z,5.07
2018-04-19T09:10:05.850Z,4.60
2018-04-19T09:12:34.475Z,4.13
2018-04-19T09:15:02.704Z,3.50
2018-04-19T09:17:30.994Z,4.10
2018-04-19T09:20:00.806Z,3.90
2018-04-19T09:22:29.415Z,3.73
2018-04-19T09:24:57.684Z,3.90
2018-04-19T09:27:27.279Z,7.30
2018-04-19T09:29:55.375Z,4.03
2018-04-19T09:32:23.644Z,4.77
2018-04-19T09:34:51.875Z,4.40
2018-04-19T09:37:20.112Z,4.47
2018-04-19T09:39:49.534Z,3.40
2018-04-19T09:42:18.532Z,4.10
2018-04-19T09:44:46.767Z,4.07
2018-04-19T09:47:16.387Z,3.70
2018-04-19T09:49:44.492Z,3.60
2018-04-19T09:52:14.236Z,4.10
2018-04-19T09:54:43.041Z,3.60
2018-04-19T09:57:12.406Z,5.00
2018-04-19T09:59:40.639Z,5.30
2018-04-19T10:02:08.911Z,4.00
2018-04-19T10:04:37.140Z,4.23
2018-04-19T10:07:05.370Z,3.60
2018-04-19T10:09:34.782Z,3.30
2018-04-19T10:12:03.010Z,3.97
2018-04-19T10:14:31.238Z,4.67
2018-04-19T10:16:59.513Z,4.53
2018-04-19T10:19:29.247Z,3.33
2018-04-19T10:21:57.479Z,4.63
2018-04-19T10:24:25.747Z,6.00
2018-04-19T10:26:54.367Z,5.33
2018-04-19T10:29:22.599Z,7.00
2018-04-19T10:31:51.655Z,8.40
2018-04-19T10:34:21.160Z,4.60
2018-04-19T10:36:50.164Z,3.07
2018-04-19T10:39:19.794Z,4.67
2018-04-19T10:41:48.291Z,2.70
2018-04-19T10:44:17.884Z,3.40
2018-04-19T10:46:46.782Z,3.17
2018-04-19T10:49:15.012Z,3.17
2018-04-19T10:51:44.981Z,4.37
2018-04-19T10:54:13.899Z,4.03
2018-04-19T10:56:43.267Z,3.17
2018-04-19T10:59:11.500Z,8.20
2018-04-19T11:01:41.270Z,3.20
2018-04-19T11:04:09.505Z,4.90
2018-04-19T11:06:37.739Z,5.60
2018-04-19T11:09:07.523Z,7.30
2018-04-19T11:11:35.770Z,4.00
2018-04-19T11:14:04.003Z,2.83
2018-04-19T11:16:32.259Z,3.70
2018-04-19T11:19:00.503Z,2.20
2018-04-19T11:21:28.795Z,4.37
2018-04-19T11:23:58.516Z,2.83
2018-04-19T11:26:26.742Z,3.20
2018-04-19T11:28:55.416Z,3.00
2018-04-19T11:31:24.411Z,2.83
2018-04-19T11:33:53.986Z,3.10
2018-04-19T11:36:22.899Z,2.87
2018-04-19T11:38:51.896Z,2.60
2018-04-19T11:41:21.636Z,4.90
2018-04-19T11:43:49.899Z,6.20
2018-04-19T11:46:18.128Z,3.33
2018-04-19T11:48:47.168Z,3.10
2018-04-19T11:51:16.776Z,2.60
2018-04-19T11:53:46.515Z,2.77
2018-04-19T11:56:14.742Z,2.80
2018-04-19T11:58:43.796Z,3.37
2018-04-19T12:01:12.065Z,3.07
2018-04-19T12:03:40.265Z,3.13
2018-04-19T12:06:10.052Z,3.00
2018-04-19T12:08:38.274Z,3.50
2018-04-19T12:11:06.502Z,2.60
2018-04-19T12:13:36.152Z,2.90
2018-04-19T12:16:04.624Z,2.83
2018-04-19T12:18:32.850Z,2.70
2018-04-19T12:21:01.513Z,3.47
2018-04-19T12:23:29.739Z,3.30
2018-04-19T12:25:57.975Z,2.53
2018-04-19T12:28:27.015Z,3.10
2018-04-19T12:30:55.243Z,3.63
2018-04-19T12:33:23.473Z,2.70
2018-04-19T12:35:52.523Z,2.53
2018-04-19T12:38:21.528Z,2.83
2018-04-19T12:40:49.758Z,2.70
2018-04-19T12:43:19.947Z,3.27
2018-04-19T12:45:48.044Z,2.97
2018-04-19T12:48:16.267Z,3.20
2018-04-19T12:50:46.068Z,3.20
2018-04-19T12:53:14.297Z,2.93
2018-04-19T12:55:43.290Z,2.80
2018-04-19T12:58:12.743Z,2.77
2018-04-19T13:00:40.967Z,3.13
2018-04-19T13:03:09.599Z,2.77
2018-04-19T13:05:41.499Z,2.90
2018-04-19T13:08:09.729Z,3.60
2018-04-19T13:10:39.093Z,3.87
2018-04-19T13:13:08.412Z,5.47
2018-04-19T13:15:37.403Z,4.83
2018-04-19T13:18:05.701Z,7.20
2018-04-19T13:20:35.275Z,5.03
2018-04-19T13:23:03.379Z,3.93
2018-04-19T13:25:32.012Z,3.03
2018-04-19T13:28:00.666Z,3.10
2018-04-19T13:30:28.896Z,3.23
2018-04-19T13:32:57.932Z,3.07
2018-04-19T13:35:27.570Z,3.13
2018-04-19T13:37:56.071Z,2.97
2018-04-19T13:40:25.068Z,2.57
2018-04-19T13:42:53.515Z,3.00
2018-04-19T13:45:23.134Z,2.37
2018-04-19T13:47:52.511Z,4.10
2018-04-19T13:50:20.742Z,3.00
2018-04-19T13:52:49.006Z,2.60
2018-04-19T13:55:17.239Z,2.93
2018-04-19T13:57:45.595Z,3.00
2018-04-19T14:00:13.823Z,2.97
2018-04-19T14:02:42.052Z,3.83
2018-04-19T14:05:10.591Z,5.00
2018-04-19T14:07:39.662Z,2.83
2018-04-19T14:10:08.216Z,2.87
2018-04-19T14:12:37.947Z,3.30
2018-04-19T14:15:06.950Z,3.20
2018-04-19T14:17:36.003Z,3.13
2018-04-19T14:20:04.238Z,2.70
2018-04-19T14:22:32.468Z,2.30
2018-04-19T14:25:00.808Z,3.37
2018-04-19T14:27:29.043Z,2.27
2018-04-19T14:29:57.266Z,2.90
2018-04-19T14:32:25.543Z,3.33
2018-04-19T14:34:53.775Z,2.50
2018-04-19T14:37:22.003Z,2.77
2018-04-19T14:39:51.622Z,3.10
2018-04-19T14:42:19.727Z,2.80
2018-04-19T14:44:47.958Z,3.40
2018-04-19T14:47:16.235Z,3.60
2018-04-19T14:49:45.826Z,2.40
2018-04-19T14:52:13.918Z,2.87
2018-04-19T14:54:42.195Z,2.97
2018-04-19T14:57:10.427Z,2.60
2018-04-19T14:59:38.651Z,2.40
2018-04-19T15:02:08.066Z,3.00
2018-04-19T15:04:36.308Z,2.90
2018-04-19T15:07:06.042Z,2.57
2018-04-19T15:09:35.641Z,2.90
2018-04-19T15:12:04.259Z,3.23
2018-04-19T15:14:33.260Z,5.30
2018-04-19T15:17:01.528Z,10.03
2018-04-19T15:19:29.759Z,6.00
2018-04-19T15:21:59.346Z,4.80
2018-04-19T15:24:28.983Z,3.03
2018-04-19T15:26:57.205Z,2.20
2018-04-19T15:29:25.493Z,2.30
2018-04-19T15:31:53.728Z,2.50
2018-04-19T15:34:21.976Z,2.10
2018-04-19T15:36:50.302Z,6.20
2018-04-19T15:39:18.516Z,6.83
2018-04-19T15:41:46.754Z,4.07
2018-04-19T15:44:15.787Z,2.40
2018-04-19T15:46:44.015Z,2.53
2018-04-19T15:49:12.274Z,2.27
2018-04-19T15:51:40.519Z,3.20
2018-04-19T15:54:08.746Z,4.60
2018-04-19T15:56:37.383Z,4.77
2018-04-19T15:59:07.037Z,4.30
2018-04-19T16:01:35.104Z,5.83
2018-04-19T16:04:03.335Z,5.70
2018-04-19T16:06:31.608Z,4.60
2018-04-19T16:08:59.850Z,3.50
2018-04-19T16:11:28.143Z,8.70
2018-04-19T16:13:57.178Z,5.40
2018-04-19T16:16:25.407Z,3.50
2018-04-19T16:18:54.472Z,3.83
2018-04-19T16:21:22.674Z,3.70
2018-04-19T16:23:51.664Z,4.67
2018-04-19T16:26:19.886Z,4.80
2018-04-19T16:28:48.619Z,8.03
2018-04-19T16:31:17.742Z,5.97
2018-04-19T16:33:46.239Z,4.30
2018-04-19T16:36:14.931Z,3.50
2018-04-19T16:38:44.334Z,4.30
2018-04-19T16:41:12.531Z,4.27
2018-04-19T16:43:40.824Z,4.60
2018-04-19T16:46:10.426Z,5.20
2018-04-19T16:48:38.927Z,4.37
2018-04-19T16:51:07.195Z,3.87
2018-04-19T16:53:35.423Z,3.40
2018-04-19T16:56:03.662Z,3.20
2018-04-19T16:58:31.928Z,3.40
2018-04-19T17:01:00.154Z,2.43
2018-04-19T17:03:28.383Z,2.90
2018-04-19T17:05:58.841Z,2.60
2018-04-19T17:08:27.718Z,2.70
2018-04-19T17:10:55.948Z,3.37
2018-04-19T17:13:24.256Z,3.43
2018-04-19T17:15:52.875Z,2.67
2018-04-19T17:18:21.103Z,2.30
2018-04-19T17:20:50.754Z,2.63
2018-04-19T17:23:19.249Z,2.90
2018-04-19T17:25:48.613Z,2.63
2018-04-19T17:28:17.647Z,2.70
2018-04-19T17:30:46.639Z,2.40
2018-04-19T17:33:14.877Z,2.57
2018-04-19T17:35:43.138Z,3.30
2018-04-19T17:38:12.179Z,3.17
2018-04-19T17:40:41.175Z,2.90
2018-04-19T17:43:09.431Z,3.50
2018-04-19T17:45:37.663Z,3.07
2018-04-19T17:48:06.019Z,3.13
2018-04-19T17:50:35.695Z,3.00
2018-04-19T17:53:03.927Z,3.40
2018-04-19T17:55:33.543Z,2.73
2018-04-19T17:58:02.990Z,3.10
2018-04-19T18:00:32.603Z,3.40
2018-04-19T18:03:00.879Z,3.53
2018-04-19T18:05:30.249Z,3.90
2018-04-19T18:07:58.474Z,3.37
2018-04-19T18:10:26.746Z,3.17
2018-04-19T18:12:54.979Z,3.27
2018-04-19T18:15:24.736Z,3.40
2018-04-19T18:17:53.035Z,3.90
2018-04-19T18:20:22.610Z,3.43
2018-04-19T18:22:51.127Z,3.10
2018-04-19T18:25:19.383Z,2.90
2018-04-19T18:27:48.977Z,3.30
2018-04-19T18:30:17.444Z,3.50
2018-04-19T18:32:45.727Z,4.43
2018-04-19T18:35:15.459Z,3.10
2018-04-19T18:37:44.454Z,3.10
2018-04-19T18:40:14.323Z,4.43
2018-04-19T18:42:42.946Z,3.63
2018-04-19T18:45:12.527Z,3.37
2018-04-19T18:47:40.679Z,3.97
2018-04-19T18:50:08.913Z,3.87
2018-04-19T18:52:37.131Z,4.27
2018-04-19T18:55:05.435Z,4.97
2018-04-19T18:57:34.799Z,5.23
2018-04-19T19:00:04.542Z,10.77
2018-04-19T19:02:32.860Z,13.20
2018-04-19T19:05:01.103Z,19.00
2018-04-19T19:07:29.350Z,23.07
2018-04-19T19:09:57.640Z,15.67
2018-04-19T19:12:27.384Z,14.93
2018-04-19T19:14:57.002Z,14.20
2018-04-19T19:17:37.635Z,14.73
2018-04-19T19:20:07.994Z,14.87
2018-04-19T19:22:37.637Z,15.70
2018-04-19T19:25:06.658Z,13.90
2018-04-19T19:27:36.090Z,14.67
2018-04-19T19:30:06.000Z,16.47
2018-04-19T19:32:34.238Z,15.27
2018-04-19T19:35:02.515Z,14.47
2018-04-19T19:37:30.758Z,14.80
2018-04-19T19:39:59.000Z,15.13
2018-04-19T19:42:27.485Z,15.10
2018-04-19T19:44:56.860Z,13.70
2018-04-19T19:47:25.106Z,13.73
2018-04-19T19:49:54.903Z,14.80
2018-04-19T19:52:23.151Z,14.17
2018-04-19T19:54:51.395Z,12.47
2018-04-19T19:57:19.678Z,13.43
2018-04-19T19:59:47.907Z,13.00
2018-04-19T20:02:16.143Z,14.10
2018-04-19T20:04:45.575Z,12.90
2018-04-19T20:07:14.590Z,11.80
2018-04-19T20:09:43.959Z,12.80
2018-04-19T20:12:13.598Z,12.63
2018-04-19T20:14:42.103Z,12.20
2018-04-19T20:17:10.343Z,12.80
2018-04-19T20:19:38.649Z,11.13
2018-04-19T20:22:06.887Z,12.60
2018-04-19T20:24:35.134Z,11.40
2018-04-19T20:27:04.564Z,12.73
2018-04-19T20:29:32.804Z,12.87
2018-04-19T20:32:01.808Z,12.43
2018-04-19T20:34:31.215Z,12.50
2018-04-19T20:36:59.459Z,12.00
2018-04-19T20:39:29.106Z,12.33
2018-04-19T20:41:57.995Z,12.20
2018-04-19T20:44:27.379Z,11.83
2018-04-19T20:46:56.050Z,11.50
2018-04-19T20:49:24.321Z,11.23
2018-04-19T20:51:53.671Z,11.53
2018-04-19T20:54:22.715Z,9.63
2018-04-19T20:56:50.959Z,6.10
2018-04-19T20:59:20.694Z,5.00
2018-04-19T21:01:48.967Z,5.23
2018-04-19T21:04:17.193Z,4.73
2018-04-19T21:06:45.431Z,6.77
2018-04-19T21:09:14.471Z,8.83
2018-04-19T21:11:42.703Z,8.43
2018-04-19T21:14:10.943Z,6.70
2018-04-19T21:16:40.724Z,6.43
2018-04-19T21:19:08.959Z,7.03
2018-04-19T21:21:37.229Z,6.63
2018-04-19T21:24:05.498Z,6.20
2018-04-19T21:26:33.735Z,6.70
2018-04-19T21:29:02.002Z,7.90
2018-04-19T21:31:31.578Z,7.43
2018-04-19T21:33:59.745Z,9.47
2018-04-19T21:36:27.983Z,10.40
2018-04-19T21:38:56.211Z,9.43
2018-04-19T21:41:24.895Z,10.70
2018-04-19T21:43:53.131Z,9.57
2018-04-19T21:46:22.131Z,11.30
2018-04-19T21:48:50.417Z,11.10
2018-04-19T21:51:18.658Z,10.37
2018-04-19T21:53:48.394Z,9.23
2018-04-19T21:56:16.689Z,8.60
2018-04-19T21:58:46.274Z,9.43
2018-04-19T22:01:15.518Z,9.73
2018-04-19T22:03:43.798Z,8.63
2018-04-19T22:06:12.039Z,8.33
2018-04-19T22:08:41.415Z,9.20
2018-04-19T22:11:09.703Z,10.40
2018-04-19T22:13:37.934Z,8.90
2018-04-19T22:16:06.170Z,9.93
2018-04-19T22:18:35.580Z,11.30
2018-04-19T22:21:03.819Z,12.40
2018-04-19T22:23:32.967Z,14.33
2018-04-19T22:26:02.023Z,15.13
2018-04-19T22:28:30.268Z,17.40
2018-04-19T22:30:58.891Z,17.77
2018-04-19T22:33:27.179Z,18.60
2018-04-19T22:35:56.770Z,17.20
2018-04-19T22:38:26.241Z,19.87
2018-04-19T22:40:54.791Z,16.93
2018-04-19T22:43:23.035Z,16.87
2018-04-19T22:45:52.623Z,14.10
2018-04-19T22:48:21.975Z,12.67
2018-04-19T22:50:51.728Z,14.13
2018-04-19T22:53:19.972Z,11.87
2018-04-19T22:55:48.255Z,14.03
2018-04-19T22:58:17.846Z,15.00
2018-04-19T23:00:46.015Z,13.80
2018-04-19T23:03:14.254Z,11.50
2018-04-19T23:05:42.491Z,11.40
2018-04-19T23:08:10.770Z,10.90
2018-04-19T23:10:40.142Z,12.50
2018-04-19T23:13:08.399Z,13.30
2018-04-19T23:15:38.191Z,14.13
2018-04-19T23:18:06.428Z,15.07
2018-04-19T23:20:34.663Z,18.93
2018-04-19T23:23:03.171Z,21.60
2018-04-19T23:25:31.431Z,19.37
2018-04-19T23:27:59.726Z,15.83
2018-04-19T23:30:28.709Z,11.47
2018-04-19T23:32:56.942Z,11.47
2018-04-19T23:35:25.211Z,10.83
2018-04-19T23:37:53.487Z,11.50
2018-04-19T23:40:21.767Z,11.33
2018-04-19T23:42:51.511Z,11.43
2018-04-19T23:45:21.133Z,7.13
2018-04-19T23:47:49.667Z,6.57
2018-04-19T23:50:17.891Z,5.90
2018-04-19T23:52:46.163Z,8.57
2018-04-19T23:55:14.408Z,10.50
2018-04-19T23:57:42.636Z,10.20
